Time;durP1;ratioP1;P1;durP2;ratioP2;P2;SDS_P1;SDS_P2;PMS_P1;PMS_P2;Temp;Humidity;BMP_temperature;BMP_pressure;BME280_temperature;BME280_humidity;BME280_pressure;Samples;Min_cycle;Max_cycle;Signal;HPM_P1;HPM_P2
2022/04/25 00:01:04;;;;;;;9.52;6.25;;;;;;;8.86;67.95;100657.03;4981605;28;20034;-87
2022/04/25 00:03:30;;;;;;;8.57;6.63;;;;;;;8.87;68.08;100661.44;4979168;28;20452;-89
2022/04/25 00:05:55;;;;;;;10.70;6.43;;;;;;;8.86;68.14;100659.69;4978896;28;20073;-87
2022/04/25 00:08:21;;;;;;;10.80;6.80;;;;;;;8.86;67.88;100663.25;4988304;28;20054;-87
2022/04/25 00:10:46;;;;;;;9.43;6.43;;;;;;;8.83;68.35;100658.06;4985288;28;20037;-88
2022/04/25 00:13:13;;;;;;;13.48;6.95;;;;;;;8.78;68.70;100661.84;4987356;28;20081;-88
2022/04/25 00:15:39;;;;;;;11.43;6.47;;;;;;;8.71;69.17;100666.59;4980030;28;20022;-88
2022/04/25 00:18:05;;;;;;;9.98;6.95;;;;;;;8.68;69.14;100666.72;4975019;28;20089;-87
2022/04/25 00:20:30;;;;;;;8.18;6.78;;;;;;;8.63;69.21;100668.75;4970911;28;20129;-88
2022/04/25 00:22:55;;;;;;;8.15;6.13;;;;;;;8.63;68.91;100666.94;4988023;28;20127;-87
2022/04/25 00:25:21;;;;;;;10.48;7.15;;;;;;;8.53;69.59;100663.00;4986693;28;20022;-87
2022/04/25 00:27:46;;;;;;;11.18;6.68;;;;;;;8.46;69.93;100662.41;4984307;28;20046;-87
2022/04/25 00:30:11;;;;;;;11.43;6.90;;;;;;;8.36;70.25;100655.75;4982815;28;20077;-88
2022/04/25 00:32:37;;;;;;;9.70;7.03;;;;;;;8.33;70.48;100668.28;4979818;28;20030;-87
2022/04/25 00:35:06;;;;;;;13.07;7.32;;;;;;;8.24;70.59;100658.97;4983742;28;20447;-88
2022/04/25 00:37:31;;;;;;;9.48;7.05;;;;;;;8.20;71.07;100665.31;4982881;28;20038;-87
2022/04/25 00:39:56;;;;;;;12.15;6.97;;;;;;;8.14;71.05;100665.56;4984166;28;20026;-88
2022/04/25 00:42:23;;;;;;;10.60;7.10;;;;;;;8.07;71.51;100662.34;4984243;28;20037;-87
2022/04/25 00:44:48;;;;;;;10.05;6.95;;;;;;;8.01;71.66;100661.75;4976222;28;20554;-87
2022/04/25 00:47:14;;;;;;;10.02;7.57;;;;;;;7.97;71.73;100661.88;4978925;28;20222;-86
2022/04/25 00:49:39;;;;;;;11.93;7.78;;;;;;;7.98;72.09;100666.25;4984904;28;20077;-87
2022/04/25 00:52:05;;;;;;;9.40;7.47;;;;;;;7.89;72.16;100671.94;4981392;28;20057;-88
2022/04/25 00:54:32;;;;;;;9.85;7.57;;;;;;;7.85;72.17;100658.88;4982922;28;20040;-88
2022/04/25 00:56:57;;;;;;;12.15;7.97;;;;;;;7.77;72.40;100655.69;4977605;28;20457;-87
2022/04/25 00:59:24;;;;;;;10.48;7.50;;;;;;;7.66;73.09;100648.22;4979061;28;20111;-87
2022/04/25 01:01:51;;;;;;;9.43;7.68;;;;;;;7.66;72.96;100666.75;4985780;28;20034;-87
2022/04/25 01:04:17;;;;;;;12.65;7.25;;;;;;;7.62;73.12;100659.84;4988206;28;20487;-87
2022/04/25 01:06:42;;;;;;;9.13;7.68;;;;;;;7.53;73.68;100655.81;4958958;28;20034;-88
2022/04/25 01:09:07;;;;;;;11.25;7.70;;;;;;;7.51;73.79;100657.63;4972432;28;20191;-88
2022/04/25 01:11:33;;;;;;;12.10;7.55;;;;;;;7.44;74.34;100659.69;4969863;28;20030;-87
2022/04/25 01:14:13;;;;;;;12.68;7.88;;;;;;;7.39;73.59;100651.06;4985601;28;20022;-88
2022/04/25 01:16:38;;;;;;;11.98;7.95;;;;;;;7.36;75.01;100653.84;4980386;28;20499;-88
2022/04/25 01:19:03;;;;;;;12.82;8.07;;;;;;;7.34;75.04;100655.69;4985452;28;20042;-87
2022/04/25 01:21:32;;;;;;;11.95;8.52;;;;;;;7.31;74.98;100655.78;4984925;28;20051;-87
2022/04/25 01:29:27;;;;;;;13.45;8.30;;;;;;;7.18;75.28;100651.91;4981468;28;20189;-88
2022/04/25 01:31:52;;;;;;;13.60;8.50;;;;;;;7.12;75.88;100650.38;4987901;28;20113;-88
2022/04/25 01:34:17;;;;;;;12.70;8.05;;;;;;;7.05;76.15;100655.97;4982927;28;20538;-88
2022/04/25 01:36:43;;;;;;;11.63;8.45;;;;;;;6.97;76.23;100654.50;4967279;28;20034;-87
2022/04/25 01:39:08;;;;;;;12.70;7.82;;;;;;;6.97;76.18;100653.63;4982148;28;20037;-88
2022/04/25 01:41:33;;;;;;;11.30;8.20;;;;;;;6.95;76.37;100664.28;4977224;28;20403;-88
2022/04/25 01:43:58;;;;;;;12.57;8.65;;;;;;;6.90;77.08;100666.25;4987032;28;20373;-88
2022/04/25 01:46:24;;;;;;;12.45;8.05;;;;;;;6.85;77.34;100660.25;4980300;28;20042;-88
2022/04/25 01:48:49;;;;;;;13.38;9.15;;;;;;;6.76;77.26;100657.97;4965372;28;20557;-87
2022/04/25 01:51:14;;;;;;;14.02;9.02;;;;;;;6.71;77.83;100659.94;4984404;28;20538;-88
2022/04/25 01:53:39;;;;;;;14.63;9.25;;;;;;;6.72;77.92;100664.28;4985869;28;20033;-88
2022/04/25 01:56:05;;;;;;;15.25;8.80;;;;;;;6.67;77.95;100667.09;4975324;28;20484;-88
2022/04/25 01:58:30;;;;;;;13.85;8.70;;;;;;;6.68;77.80;100663.53;4984869;28;20026;-88
2022/04/25 02:00:55;;;;;;;14.00;9.18;;;;;;;6.65;78.10;100663.69;4975445;28;20296;-88
2022/04/25 02:03:21;;;;;;;12.35;9.02;;;;;;;6.60;78.20;100662.09;4973365;28;20109;-87
2022/04/25 02:05:46;;;;;;;12.18;9.13;;;;;;;6.60;78.34;100664.75;4975821;28;20046;-88
2022/04/25 02:08:11;;;;;;;13.82;9.35;;;;;;;6.55;78.52;100659.63;4982350;28;20068;-88
2022/04/25 02:10:37;;;;;;;12.77;9.07;;;;;;;6.55;79.00;100672.00;4983432;28;20031;-88
2022/04/25 02:13:02;;;;;;;14.85;10.35;;;;;;;6.48;78.85;100656.38;4986168;28;20496;-87
2022/04/25 02:15:28;;;;;;;14.93;9.57;;;;;;;6.45;79.08;100659.13;4979443;28;20031;-88
2022/04/25 02:17:53;;;;;;;14.55;10.07;;;;;;;6.41;79.34;100662.78;4980246;28;20541;-88
2022/04/25 02:20:18;;;;;;;14.23;10.07;;;;;;;6.34;79.67;100663.06;4979109;28;20469;-87
2022/04/25 02:22:43;;;;;;;12.82;9.50;;;;;;;6.30;79.80;100666.75;4975572;28;20022;-88
2022/04/25 02:25:09;;;;;;;16.40;10.10;;;;;;;6.33;79.87;100662.22;4982843;28;20129;-88
2022/04/25 02:27:35;;;;;;;16.38;10.27;;;;;;;6.32;79.94;100668.41;4973005;28;20467;-87
2022/04/25 02:30:00;;;;;;;14.02;10.30;;;;;;;6.25;80.45;100661.63;4986007;28;20019;-87
2022/04/25 02:32:27;;;;;;;16.58;10.65;;;;;;;6.23;80.58;100661.69;4987304;28;20031;-87
2022/04/25 02:34:54;;;;;;;12.70;9.65;;;;;;;6.16;80.78;100659.31;4979503;28;20031;-87
2022/04/25 02:37:20;;;;;;;17.02;10.85;;;;;;;6.16;80.94;100661.94;4987277;28;20061;-88
2022/04/25 02:39:45;;;;;;;13.05;10.10;;;;;;;6.15;81.11;100662.88;4978166;28;20264;-87
2022/04/25 02:42:10;;;;;;;16.00;10.48;;;;;;;6.12;81.05;100660.34;4980787;28;20029;-87
2022/04/25 02:44:35;;;;;;;15.43;10.23;;;;;;;6.11;80.96;100669.19;4984985;28;20034;-88
2022/04/25 02:47:01;;;;;;;18.38;10.68;;;;;;;6.12;80.99;100669.13;4970253;28;20066;-87
2022/04/25 02:49:26;;;;;;;19.90;11.60;;;;;;;6.07;81.32;100657.88;4984495;28;20383;-87
2022/04/25 02:51:51;;;;;;;15.90;10.75;;;;;;;6.08;81.49;100661.38;4981732;28;20038;-88
2022/04/25 02:54:17;;;;;;;14.80;10.38;;;;;;;6.04;81.61;100665.03;4981471;28;20380;-88
2022/04/25 02:56:42;;;;;;;15.02;10.60;;;;;;;6.02;81.12;100653.63;4987939;28;20057;-88
2022/04/25 02:59:07;;;;;;;14.80;11.07;;;;;;;6.03;81.75;100663.31;4978433;28;20034;-88
2022/04/25 03:01:33;;;;;;;15.98;11.07;;;;;;;5.94;82.01;100665.34;4980666;28;20050;-87
2022/04/25 03:03:58;;;;;;;15.02;11.23;;;;;;;5.91;82.36;100665.41;4985009;28;20538;-88
2022/04/25 03:06:24;;;;;;;14.10;11.25;;;;;;;5.91;82.65;100665.41;4979842;28;20146;-88
2022/04/25 03:08:49;;;;;;;17.48;11.88;;;;;;;5.84;82.61;100665.69;4987795;28;20437;-88
2022/04/25 03:11:14;;;;;;;16.73;11.40;;;;;;;5.78;82.93;100652.69;4985915;28;20038;-88
2022/04/25 03:13:39;;;;;;;16.00;11.07;;;;;;;5.78;83.22;100668.53;4985861;28;20026;-88
2022/04/25 03:16:06;;;;;;;14.32;10.77;;;;;;;5.79;83.00;100665.84;4981332;28;20049;-88
2022/04/25 03:18:32;;;;;;;17.33;11.25;;;;;;;5.77;83.25;100661.50;4979458;28;20031;-88
2022/04/25 03:20:58;;;;;;;17.00;11.40;;;;;;;5.75;83.23;100669.50;4977895;28;20445;-88
2022/04/25 03:23:24;;;;;;;17.45;11.45;;;;;;;5.76;83.08;100665.94;4981237;28;20415;-88
2022/04/25 03:25:50;;;;;;;18.02;11.52;;;;;;;5.73;83.22;100671.34;4984589;28;20031;-87
2022/04/25 03:28:16;;;;;;;18.27;11.90;;;;;;;5.67;83.57;100666.25;4987846;28;20034;-88
2022/04/25 03:30:41;;;;;;;18.63;11.90;;;;;;;5.67;83.20;100656.53;4988305;28;20040;-88
2022/04/25 03:33:08;;;;;;;18.45;12.90;;;;;;;5.69;83.44;100677.63;4982292;28;20026;-87
2022/04/25 03:35:33;;;;;;;17.70;11.98;;;;;;;5.68;83.30;100673.25;4985081;28;20046;-87
2022/04/25 03:37:59;;;;;;;17.30;12.52;;;;;;;5.67;83.69;100669.75;4983729;28;20034;-87
2022/04/25 03:40:25;;;;;;;18.40;11.73;;;;;;;5.59;83.97;100665.63;4987425;28;20022;-88
2022/04/25 03:42:50;;;;;;;19.05;12.20;;;;;;;5.61;83.97;100672.59;4986334;28;20448;-88
2022/04/25 03:45:18;;;;;;;18.63;12.65;;;;;;;5.58;84.54;100667.41;4977163;28;20114;-88
2022/04/25 03:47:45;;;;;;;16.80;12.75;;;;;;;5.45;84.82;100661.69;4985909;28;20030;-88
2022/04/25 03:50:11;;;;;;;21.50;13.07;;;;;;;5.40;85.17;100668.03;4990069;28;20037;-88
2022/04/25 03:52:37;;;;;;;21.27;13.23;;;;;;;5.36;85.16;100661.97;4990747;28;20035;-88
2022/04/25 03:57:58;;;;;;;21.63;13.30;;;;;;;5.31;85.39;100663.03;4987669;28;20611;-88
2022/04/25 04:00:24;;;;;;;19.45;13.27;;;;;;;5.34;85.62;100669.06;4986758;28;20130;-88
2022/04/25 04:02:50;;;;;;;20.35;13.20;;;;;;;5.32;85.49;100663.00;4987742;28;20030;-87
2022/04/25 04:05:15;;;;;;;18.05;13.57;;;;;;;5.33;85.68;100664.72;4990487;28;20042;-87
2022/04/25 04:07:41;;;;;;;18.35;13.10;;;;;;;5.30;86.49;100671.84;4990622;28;20058;-87
2022/04/25 04:10:08;;;;;;;21.48;12.98;;;;;;;5.27;86.09;100679.88;4984382;28;20025;-89
2022/04/25 04:12:36;;;;;;;22.05;14.05;;;;;;;5.23;86.01;100673.84;4983952;28;20030;-88
2022/04/25 04:15:05;;;;;;;20.52;13.32;;;;;;;5.22;86.12;100678.25;4987394;28;20424;-88
2022/04/25 04:17:31;;;;;;;21.13;13.32;;;;;;;5.24;86.00;100679.06;4989487;28;20443;-88
2022/04/25 04:19:56;;;;;;;19.27;13.02;;;;;;;5.27;85.92;100679.88;4989372;28;20085;-88
2022/04/25 04:22:23;;;;;;;17.13;12.65;;;;;;;5.25;86.05;100683.41;4991348;28;20102;-88
2022/04/25 04:24:49;;;;;;;21.65;14.15;;;;;;;5.22;86.48;100686.19;4981748;28;20034;-87
2022/04/25 04:27:14;;;;;;;21.13;14.10;;;;;;;5.23;86.41;100687.91;4982312;28;20061;-87
2022/04/25 04:29:41;;;;;;;18.60;13.68;;;;;;;5.20;86.46;100692.41;4989142;28;20267;-87
2022/04/25 04:32:07;;;;;;;22.27;14.40;;;;;;;5.13;87.11;100688.22;4991221;28;20354;-87
2022/04/25 04:34:34;;;;;;;20.65;14.43;;;;;;;5.17;87.09;100689.84;4971225;28;20049;-87
2022/04/25 04:36:59;;;;;;;21.88;14.32;;;;;;;5.17;87.00;100701.25;4970256;28;20023;-88
2022/04/25 04:39:24;;;;;;;21.70;13.98;;;;;;;5.20;86.91;100703.81;4993027;28;20188;-88
2022/04/25 04:41:50;;;;;;;21.42;14.98;;;;;;;5.16;86.90;100698.69;4983219;28;20032;-87
2022/04/25 04:44:15;;;;;;;24.48;14.95;;;;;;;5.17;87.15;100710.97;4978953;28;20042;-87
2022/04/25 04:46:41;;;;;;;19.02;13.73;;;;;;;5.18;86.69;100715.31;4983971;28;20038;-88
2022/04/25 04:49:06;;;;;;;19.95;14.10;;;;;;;5.18;87.16;100710.94;4974035;28;20567;-87
2022/04/25 04:51:31;;;;;;;19.35;14.65;;;;;;;5.17;87.29;100725.00;4961546;28;20366;-88
2022/04/25 04:53:59;;;;;;;23.83;14.57;;;;;;;5.20;87.10;100724.06;4986954;28;20026;-88
2022/04/25 04:56:34;;;;;;;21.88;14.82;;;;;;;5.17;87.36;100713.59;4990067;28;20030;-88
2022/04/25 04:59:00;;;;;;;20.85;14.93;;;;;;;5.20;87.02;100716.16;4983105;28;20322;-88
2022/04/25 05:01:26;;;;;;;23.75;16.38;;;;;;;5.19;87.48;100722.34;4985142;28;20030;-87
2022/04/25 05:03:52;;;;;;;21.65;14.80;;;;;;;5.20;87.31;100724.94;4979044;28;20022;-88
2022/04/25 05:06:17;;;;;;;23.25;14.95;;;;;;;5.23;87.32;100727.47;4989296;28;20035;-89
2022/04/25 05:08:42;;;;;;;23.23;15.32;;;;;;;5.23;87.63;100721.34;4986296;28;20030;-89
2022/04/25 05:11:09;;;;;;;24.92;16.27;;;;;;;5.24;87.78;100725.72;4981248;28;20022;-88
2022/04/25 05:13:36;;;;;;;26.73;16.17;;;;;;;5.27;88.22;100735.28;4987024;28;20026;-89
2022/04/25 05:16:03;;;;;;;20.63;15.98;;;;;;;5.39;87.65;100735.78;4967236;28;20062;-88
2022/04/25 05:18:32;;;;;;;23.77;16.23;;;;;;;5.48;87.30;100734.66;4988932;28;20034;-89
2022/04/25 05:21:01;;;;;;;22.73;15.38;;;;;;;5.59;86.50;100734.28;4980183;28;20026;-88
2022/04/25 05:23:26;;;;;;;25.13;15.32;;;;;;;5.69;86.68;100744.50;4982820;28;20023;-89
2022/04/25 05:25:51;;;;;;;19.25;13.95;;;;;;;5.75;86.30;100746.94;4985461;28;20053;-89
2022/04/25 05:28:17;;;;;;;23.48;16.45;;;;;;;5.78;86.28;100737.22;4988224;28;20041;-88
2022/04/25 05:30:43;;;;;;;20.77;15.40;;;;;;;5.84;86.49;100732.56;4978088;28;20041;-89
2022/04/25 05:33:09;;;;;;;22.70;15.57;;;;;;;6.05;85.74;100746.00;4979742;28;20038;-89
2022/04/25 05:35:35;;;;;;;25.33;15.77;;;;;;;6.16;85.06;100736.81;4986748;28;20026;-87
2022/04/25 05:38:01;;;;;;;20.70;15.70;;;;;;;6.29;84.56;100750.47;4968243;28;20025;-88
2022/04/25 05:40:27;;;;;;;24.85;15.52;;;;;;;6.26;84.42;100747.91;4981030;28;20041;-87
2022/04/25 05:42:55;;;;;;;20.23;15.10;;;;;;;6.26;84.87;100754.97;4974262;28;20027;-89
2022/04/25 05:45:23;;;;;;;23.38;15.27;;;;;;;6.34;84.81;100764.38;4979725;28;20101;-89
2022/04/25 05:47:49;;;;;;;21.45;15.68;;;;;;;6.37;84.62;100769.56;4973659;28;20035;-88
2022/04/25 05:53:00;;;;;;;22.17;15.27;;;;;;;6.45;84.22;100772.81;4986579;28;20116;-89
2022/04/25 05:55:28;;;;;;;22.92;16.08;;;;;;;6.54;84.05;100776.91;4982959;28;20037;-89
2022/04/25 05:57:54;;;;;;;23.67;16.38;;;;;;;6.63;84.03;100787.16;4979265;28;20030;-88
2022/04/25 06:00:19;;;;;;;25.45;15.57;;;;;;;6.74;83.32;100778.84;4980752;28;20409;-89
2022/04/25 06:02:46;;;;;;;26.27;16.20;;;;;;;6.80;83.23;100781.25;4974068;28;20440;-88
2022/04/25 06:05:12;;;;;;;23.75;16.17;;;;;;;6.92;83.02;100785.25;4984297;28;20030;-89
2022/04/25 06:07:45;;;;;;;21.60;16.00;;;;;;;6.95;82.92;100786.00;4982105;28;20058;-89
2022/04/25 06:10:12;;;;;;;23.95;16.35;;;;;;;7.09;82.86;100792.56;4971483;28;20031;-87
2022/04/25 06:12:42;;;;;;;23.73;15.50;;;;;;;7.18;82.54;100794.84;4980424;28;20530;-87
2022/04/25 06:15:09;;;;;;;22.60;15.60;;;;;;;7.27;81.82;100807.75;4979113;28;20054;-86
2022/04/25 06:17:35;;;;;;;22.75;15.70;;;;;;;7.37;82.33;100808.28;4968607;28;20086;-89
2022/04/25 06:20:01;;;;;;;25.20;16.83;;;;;;;7.33;81.62;100804.03;4979854;28;20350;-87
2022/04/25 06:22:26;;;;;;;23.92;15.82;;;;;;;7.36;81.58;100806.56;4985977;28;20049;-87
2022/04/25 06:24:51;;;;;;;22.25;15.77;;;;;;;7.35;81.85;100796.88;4984426;28;20084;-87
2022/04/25 06:27:16;;;;;;;26.23;18.23;;;;;;;7.42;82.01;100795.72;4984246;28;20440;-87
2022/04/25 06:29:44;;;;;;;24.60;16.45;;;;;;;7.61;81.61;100795.88;4982373;28;20081;-87
2022/04/25 06:32:10;;;;;;;23.05;16.85;;;;;;;7.80;80.90;100793.34;4981218;28;20031;-87
2022/04/25 06:34:35;;;;;;;25.10;16.15;;;;;;;7.93;80.12;100783.97;4982733;28;20050;-86
2022/04/25 06:37:00;;;;;;;23.33;16.73;;;;;;;8.03;79.38;100790.63;4983313;28;20323;-86
2022/04/25 06:39:26;;;;;;;23.88;16.35;;;;;;;8.06;79.26;100797.59;4980866;28;20112;-86
2022/04/25 06:41:51;;;;;;;27.88;16.35;;;;;;;8.01;79.58;100789.81;4965163;28;20192;-87
2022/04/25 06:44:16;;;;;;;22.98;16.02;;;;;;;7.93;79.55;100790.13;4965045;28;20542;-86
2022/04/25 06:46:43;;;;;;;23.95;17.35;;;;;;;7.83;80.34;100798.53;4982407;28;20038;-86
2022/04/25 06:49:23;;;;;;;24.27;17.15;;;;;;;7.79;80.59;100805.75;4976115;28;20827;-87
2022/04/25 06:51:48;;;;;;;24.98;17.58;;;;;;;7.85;81.08;100799.31;4979414;28;20030;-86
2022/04/25 06:54:15;;;;;;;23.10;17.48;;;;;;;7.91;80.97;100793.78;4983753;28;20538;-86
2022/04/25 06:56:41;;;;;;;29.13;17.75;;;;;;;8.14;80.57;100798.13;4979163;28;20038;-86
2022/04/25 06:59:06;;;;;;;24.92;17.48;;;;;;;8.39;79.55;100804.16;4977440;28;20037;-87
2022/04/25 07:01:32;;;;;;;24.45;17.65;;;;;;;8.58;78.74;100806.91;4986596;28;20113;-86
2022/04/25 07:03:58;;;;;;;29.45;18.20;;;;;;;8.79;78.12;100809.56;4982727;28;20450;-85
2022/04/25 07:06:23;;;;;;;23.50;17.63;;;;;;;8.89;77.62;100794.94;4980763;28;20165;-86
2022/04/25 07:08:48;;;;;;;26.05;17.50;;;;;;;9.03;77.00;100804.94;4981011;28;20114;-86
2022/04/25 07:11:13;;;;;;;22.35;17.05;;;;;;;9.09;76.35;100807.31;4984717;28;20030;-84
2022/04/25 07:13:42;;;;;;;21.02;17.05;;;;;;;9.05;76.80;100809.25;4983796;28;20474;-86
2022/04/25 07:16:08;;;;;;;25.10;17.52;;;;;;;9.11;77.09;100813.41;4968240;28;20058;-85
2022/04/25 07:18:34;;;;;;;27.05;18.20;;;;;;;9.15;76.70;100807.03;4982126;28;20042;-85
2022/04/25 07:20:59;;;;;;;23.70;18.45;;;;;;;9.12;76.73;100812.50;4985322;28;20093;-86
2022/04/25 07:28:48;;;;;;;26.63;19.40;;;;;;;8.86;77.03;100821.59;4982876;28;20042;-86
2022/04/25 07:31:14;;;;;;;26.42;19.35;;;;;;;8.97;77.24;100819.34;4985774;28;20034;-86
2022/04/25 07:33:43;;;;;;;23.63;19.35;;;;;;;9.07;76.57;100820.69;4975666;28;20444;-87
2022/04/25 07:36:08;;;;;;;26.60;19.15;;;;;;;9.06;76.58;100828.69;4976781;28;20178;-87
2022/04/25 07:38:33;;;;;;;27.67;19.85;;;;;;;8.97;76.91;100828.16;4985373;28;20490;-86
2022/04/25 07:41:00;;;;;;;25.38;19.88;;;;;;;8.91;77.09;100827.59;4970467;28;20031;-86
2022/04/25 07:43:25;;;;;;;26.38;19.17;;;;;;;8.87;77.51;100826.00;4988593;28;20026;-87
2022/04/25 07:45:51;;;;;;;25.67;19.45;;;;;;;8.78;77.69;100829.94;4981312;28;20027;-86
2022/04/25 07:48:16;;;;;;;27.73;21.40;;;;;;;8.77;77.92;100836.13;4974727;28;20038;-87
2022/04/25 07:50:44;;;;;;;27.10;20.15;;;;;;;8.75;78.25;100839.81;4978783;28;20089;-87
2022/04/25 07:53:09;;;;;;;32.92;21.88;;;;;;;8.76;78.15;100846.84;4983923;28;20320;-87
2022/04/25 07:55:35;;;;;;;26.90;20.40;;;;;;;8.74;78.19;100844.25;4981025;28;20054;-88
2022/04/25 07:58:01;;;;;;;27.92;21.15;;;;;;;8.65;78.56;100842.88;4967678;28;20034;-87
2022/04/25 08:00:27;;;;;;;26.33;19.45;;;;;;;8.67;78.10;100851.59;4978035;28;20555;-87
2022/04/25 08:02:52;;;;;;;29.10;21.10;;;;;;;8.66;78.67;100849.88;4976746;28;20043;-87
2022/04/25 08:05:17;;;;;;;29.88;21.17;;;;;;;8.63;78.82;100849.16;4976732;28;20030;-87
2022/04/25 08:07:43;;;;;;;30.15;21.50;;;;;;;8.61;79.54;100857.19;4976519;28;20038;-86
2022/04/25 08:10:08;;;;;;;28.25;19.80;;;;;;;8.52;79.51;100852.25;4977192;28;20073;-87
2022/04/25 08:18:04;;;;;;;27.98;20.00;;;;;;;8.38;80.73;100866.09;4975785;28;20265;-86
2022/04/25 08:20:34;;;;;;;25.48;19.63;;;;;;;8.39;81.22;100867.81;4985568;28;20034;-86
2022/04/25 08:23:00;;;;;;;32.38;21.13;;;;;;;8.40;81.44;100873.97;4986304;28;20046;-85
2022/04/25 08:25:25;;;;;;;28.23;21.23;;;;;;;8.35;82.36;100875.94;4969636;28;20062;-87
2022/04/25 08:27:51;;;;;;;31.90;23.30;;;;;;;8.27;83.12;100875.38;4974773;28;20138;-88
2022/04/25 08:30:17;;;;;;;32.53;23.20;;;;;;;8.20;84.20;100880.94;4975721;28;20105;-87
2022/04/25 08:32:43;;;;;;;31.38;22.85;;;;;;;8.17;85.43;100882.84;4980511;28;20062;-88
2022/04/25 08:35:11;;;;;;;32.63;24.25;;;;;;;8.07;86.00;100881.47;4976240;28;20072;-87
2022/04/25 08:37:36;;;;;;;35.33;24.45;;;;;;;7.91;86.78;100883.91;4982731;28;20033;-87
2022/04/25 08:40:02;;;;;;;36.08;25.13;;;;;;;7.90;87.53;100893.63;4976500;28;20033;-86
2022/04/25 08:42:29;;;;;;;37.72;26.05;;;;;;;7.82;88.12;100897.50;4963846;28;20055;-87
2022/04/25 08:44:57;;;;;;;36.15;25.90;;;;;;;7.77;89.17;100897.66;4979960;28;20141;-85
2022/04/25 08:47:28;;;;;;;33.97;24.52;;;;;;;7.79;89.57;100897.63;4983490;28;20089;-84
2022/04/25 08:49:57;;;;;;;37.40;25.23;;;;;;;7.77;89.69;100897.66;4980209;28;20046;-84
2022/04/25 08:52:23;;;;;;;35.63;26.60;;;;;;;7.74;89.92;100900.44;4979952;28;20030;-85
2022/04/25 08:54:49;;;;;;;35.35;25.80;;;;;;;7.78;90.15;100909.16;4983400;28;20506;-86
2022/04/25 08:57:17;;;;;;;36.92;28.00;;;;;;;7.74;90.45;100906.59;4977270;28;20034;-86
2022/04/25 08:59:43;;;;;;;39.90;27.50;;;;;;;7.81;91.57;100909.88;4985825;28;20035;-86
2022/04/25 09:02:10;;;;;;;37.78;27.95;;;;;;;7.92;91.98;100918.28;4985806;28;20035;-86
2022/04/25 09:04:36;;;;;;;41.28;29.13;;;;;;;8.04;91.99;100916.09;4976327;28;20035;-85
2022/04/25 09:07:02;;;;;;;38.67;28.02;;;;;;;8.19;91.60;100923.41;4983176;28;20488;-85
2022/04/25 09:09:27;;;;;;;35.97;27.40;;;;;;;8.33;91.52;100921.09;4967136;28;20038;-84
2022/04/25 09:12:13;;;;;;;41.95;28.17;;;;;;;8.38;91.80;100924.44;4987193;28;20026;-84
2022/04/25 09:14:40;;;;;;;39.03;28.08;;;;;;;8.55;92.22;100925.53;4984588;28;20475;-84
2022/04/25 09:17:07;;;;;;;40.45;29.02;;;;;;;8.56;91.15;100932.56;4977419;28;20038;-85
2022/04/25 09:19:33;;;;;;;42.92;28.13;;;;;;;8.54;90.60;100930.00;4985837;28;20026;-84
2022/04/25 09:21:58;;;;;;;39.47;28.50;;;;;;;8.53;90.34;100928.28;4974243;28;20046;-85
2022/04/25 09:24:28;;;;;;;36.85;26.48;;;;;;;8.52;90.58;100926.53;4982946;28;20026;-84
2022/04/25 09:27:06;;;;;;;41.05;27.73;;;;;;;8.58;90.80;100933.38;4981923;28;20042;-84
2022/04/25 09:29:31;;;;;;;39.13;27.67;;;;;;;8.47;90.95;100934.69;4970766;28;20491;-84
2022/04/25 09:31:57;;;;;;;40.53;27.67;;;;;;;8.40;91.94;100927.91;4968931;28;20030;-84
2022/04/25 09:37:06;;;;;;;37.58;28.38;;;;;;;8.26;91.43;100946.13;4983280;28;20145;-84
2022/04/25 09:39:32;;;;;;;36.40;26.20;;;;;;;8.08;91.56;100936.25;4985078;28;20058;-84
2022/04/25 09:42:00;;;;;;;37.72;27.15;;;;;;;8.02;91.90;100949.72;4985965;28;20022;-83
2022/04/25 09:44:25;;;;;;;36.38;26.40;;;;;;;7.89;91.76;100952.84;4985436;28;20034;-84
2022/04/25 09:46:50;;;;;;;32.35;24.58;;;;;;;7.79;91.82;100940.88;4963157;28;20508;-84
2022/04/25 09:49:20;;;;;;;32.47;24.10;;;;;;;7.79;91.89;100948.81;4986101;28;20034;-84
2022/04/25 09:52:04;;;;;;;34.95;25.00;;;;;;;7.82;92.47;100956.66;4980199;28;20033;-85
2022/04/25 09:54:29;;;;;;;;;;;;;;;7.97;90.50;100955.19;4979795;28;20042;-84
2022/04/25 09:56:55;;;;;;;36.40;25.13;;;;;;;8.08;92.27;100946.84;4985842;28;20374;-85
2022/04/25 09:59:21;;;;;;;33.85;24.20;;;;;;;8.37;92.33;100951.91;4980924;28;20038;-84
2022/04/25 10:02:02;;;;;;;31.85;24.13;;;;;;;8.59;90.52;100954.53;4996328;28;20030;-84
2022/04/25 10:04:31;;;;;;;32.05;24.33;;;;;;;8.70;90.55;100962.06;4977345;28;20100;-83
2022/04/25 10:07:02;;;;;;;34.25;24.70;;;;;;;8.76;90.22;100966.25;4984965;28;20388;-83
2022/04/25 10:09:32;;;;;;;31.20;24.08;;;;;;;8.88;89.28;100958.66;4976746;28;20035;-84
2022/04/25 10:11:59;;;;;;;30.92;23.77;;;;;;;8.92;88.20;100964.69;4983676;28;20030;-84
2022/04/25 10:14:25;;;;;;;33.38;23.70;;;;;;;8.91;88.59;100961.19;4985937;28;20080;-84
2022/04/25 10:16:51;;;;;;;31.83;23.65;;;;;;;8.84;88.04;100965.00;4981466;28;20483;-84
2022/04/25 10:19:18;;;;;;;31.45;23.48;;;;;;;8.77;88.41;100975.94;4959857;28;20038;-85
2022/04/25 10:21:45;;;;;;;30.38;23.75;;;;;;;8.72;89.07;100970.81;4981241;28;20030;-85
2022/04/25 10:24:10;;;;;;;30.83;24.23;;;;;;;8.66;88.47;100971.09;4983296;28;20037;-85
2022/04/25 10:26:36;;;;;;;29.73;22.88;;;;;;;8.57;88.61;100984.69;4977048;28;20043;-85
2022/04/25 10:29:11;;;;;;;33.30;24.25;;;;;;;8.50;88.49;100984.09;4984970;28;20066;-85
2022/04/25 10:31:41;;;;;;;29.83;22.70;;;;;;;8.51;89.39;100990.25;4981982;28;20072;-84
2022/04/25 10:34:06;;;;;;;30.48;22.98;;;;;;;8.54;89.45;100988.34;4979124;28;20038;-84
2022/04/25 10:36:38;;;;;;;34.53;25.00;;;;;;;8.53;89.31;100997.25;4977217;28;20041;-84
2022/04/25 10:39:12;;;;;;;31.08;23.98;;;;;;;8.55;89.37;100992.72;4982238;28;20049;-84
2022/04/25 10:44:25;;;;;;;31.63;22.25;;;;;;;8.58;88.68;101002.38;4944506;28;20446;-84
2022/04/25 10:47:05;;;;;;;33.13;23.92;;;;;;;8.54;88.42;100998.97;4948761;28;20039;-84
2022/04/25 10:49:33;;;;;;;33.95;24.05;;;;;;;8.42;88.49;101005.63;4952550;28;20063;-84
2022/04/25 10:51:59;;;;;;;31.48;23.50;;;;;;;8.37;89.69;101001.44;4952662;28;20047;-83
2022/04/25 10:54:28;;;;;;;29.48;23.25;;;;;;;8.32;89.38;101003.34;4948577;28;20065;-84
2022/04/25 10:57:08;;;;;;;34.33;23.60;;;;;;;8.38;90.60;101009.31;4946756;28;20098;-84
2022/04/25 10:59:35;;;;;;;33.63;24.77;;;;;;;8.37;90.67;101012.03;4954239;28;20043;-85
2022/04/25 11:02:19;;;;;;;33.20;24.15;;;;;;;8.27;90.49;101006.19;4956113;28;20055;-84
2022/04/25 11:04:44;;;;;;;32.55;25.23;;;;;;;8.45;91.33;101013.47;4958970;28;20179;-84
2022/04/25 11:07:23;;;;;;;34.28;24.58;;;;;;;8.58;90.85;101011.19;4945987;28;20054;-85
2022/04/25 11:09:50;;;;;;;34.20;25.42;;;;;;;8.60;91.13;101008.47;4943039;28;20043;-84
2022/04/25 11:12:16;;;;;;;32.00;24.48;;;;;;;8.66;90.43;101016.19;4945685;28;20074;-84
2022/04/25 11:15:00;;;;;;;34.92;26.25;;;;;;;8.62;91.31;101007.50;4948160;28;20126;-83
2022/04/25 11:17:26;;;;;;;34.92;26.00;;;;;;;8.63;90.38;101009.22;4952786;28;20046;-83
2022/04/25 11:19:54;;;;;;;35.33;25.65;;;;;;;8.67;90.98;101023.22;4957230;28;20411;-83
2022/04/25 11:22:38;;;;;;;33.13;24.73;;;;;;;8.80;91.75;101023.59;4967015;28;20046;-82
2022/04/25 11:25:25;;;;;;;34.20;24.90;;;;;;;8.90;90.45;101022.28;4982089;28;20174;-83
2022/04/25 11:28:09;;;;;;;31.73;24.02;;;;;;;8.96;90.24;101024.69;4984473;28;20054;-84
2022/04/25 11:30:35;;;;;;;35.90;25.38;;;;;;;8.97;90.16;101019.31;4979682;28;20038;-84
2022/04/25 11:33:12;;;;;;;33.90;24.73;;;;;;;8.91;90.09;101022.22;4977550;28;20022;-85
2022/04/25 11:35:41;;;;;;;34.20;24.95;;;;;;;8.84;90.31;101030.50;4971863;28;20041;-84
2022/04/25 11:38:07;;;;;;;33.60;24.38;;;;;;;8.77;90.21;101031.66;4957097;28;20123;-85
2022/04/25 11:40:32;;;;;;;31.90;23.77;;;;;;;8.70;89.58;101037.25;4976977;28;20487;-83
2022/04/25 11:42:59;;;;;;;33.35;24.38;;;;;;;8.64;89.46;101039.25;4972381;28;20034;-84
2022/04/25 11:45:26;;;;;;;33.53;24.75;;;;;;;8.60;90.04;101038.50;4980976;28;20085;-84